Time;durP1;ratioP1;P1;durP2;ratioP2;P2;SDS_P1;SDS_P2;PMS_P1;PMS_P2;Temp;Humidity;BMP_temperature;BMP_pressure;BME280_temperature;BME280_humidity;BME280_pressure;Samples;Min_cycle;Max_cycle;Signal;HPM_P1;HPM_P2
2023/06/02 14:34:02;;;;;;;48.38;6.40;;;;;;;;;;5060221;27;1302192;-55
2023/06/02 14:36:28;;;;;;;44.28;6.07;;;;;;;;;;5081747;27;20058;-54
2023/06/02 14:38:53;;;;;;;40.60;5.63;;;;;;;;;;5065772;28;20414;-56
2023/06/02 14:41:19;;;;;;;47.90;6.75;;;;;;;;;;5065314;28;20278;-55
2023/06/02 14:43:44;;;;;;;67.63;9.02;;;;;;;;;;5064920;28;20525;-56
2023/06/02 14:46:09;;;;;;;47.53;6.22;;;;;;;;;;5065962;28;20178;-55
2023/06/02 14:48:35;;;;;;;76.03;9.43;;;;;;;;;;5063449;28;20032;-57
2023/06/02 14:51:00;;;;;;;49.13;6.78;;;;;;;;;;5064934;28;20304;-56
2023/06/02 14:53:25;;;;;;;44.70;6.27;;;;;;;;;;5065870;28;20572;-55
2023/06/02 14:55:51;;;;;;;42.25;6.68;;;;;;;;;;5064694;28;20912;-56
2023/06/02 14:58:17;;;;;;;58.45;7.38;;;;;;;;;;5065546;28;20358;-58
2023/06/02 15:00:42;;;;;;;103.38;11.32;;;;;;;;;;5062541;28;20168;-57
2023/06/02 15:03:08;;;;;;;48.42;6.10;;;;;;;;;;5057008;28;20288;-56
2023/06/02 15:05:33;;;;;;;50.80;7.13;;;;;;;;;;5067368;28;20040;-56
2023/06/02 15:08:01;;;;;;;59.47;7.70;;;;;;;;;;5069506;28;20058;-58
2023/06/02 15:10:26;;;;;;;56.63;7.00;;;;;;;;;;5068151;28;20021;-57
2023/06/02 15:12:51;;;;;;;44.45;6.53;;;;;;;;;;5066911;28;21558;-56
2023/06/02 15:15:16;;;;;;;47.17;6.70;;;;;;;;;;5068451;28;20012;-58
2023/06/02 15:17:42;;;;;;;70.63;9.47;;;;;;;;;;5066706;28;20020;-58
2023/06/02 15:20:08;;;;;;;46.50;6.85;;;;;;;;;;5068483;28;20020;-58
2023/06/02 15:22:33;;;;;;;43.45;6.10;;;;;;;;;;5065760;28;20127;-53
2023/06/02 15:24:59;;;;;;;36.80;5.57;;;;;;;;;;5069800;28;20020;-55
2023/06/02 15:27:24;;;;;;;52.95;7.00;;;;;;;;;;5069015;28;20574;-58
2023/06/02 15:29:49;;;;;;;64.50;8.38;;;;;;;;;;5066927;28;20464;-57
2023/06/02 15:32:15;;;;;;;37.77;5.83;;;;;;;;;;5067142;28;20040;-57
2023/06/02 15:34:40;;;;;;;86.13;10.67;;;;;;;;;;5066183;28;20345;-57
2023/06/02 15:37:05;;;;;;;45.10;7.30;;;;;;;;;;5067670;28;20820;-56
2023/06/02 15:39:30;;;;;;;57.58;7.25;;;;;;;;;;5068965;28;20258;-55
2023/06/02 15:41:56;;;;;;;64.33;7.77;;;;;;;;;;5066475;28;20028;-57
2023/06/02 15:44:21;;;;;;;47.73;6.93;;;;;;;;;;5061298;28;20024;-57
2023/06/02 15:46:46;;;;;;;68.87;8.83;;;;;;;;;;5052810;28;20708;-57
2023/06/02 15:49:11;;;;;;;50.27;6.83;;;;;;;;;;5054561;28;20324;-55
2023/06/02 15:51:37;;;;;;;54.93;7.60;;;;;;;;;;5052573;28;20032;-56
2023/06/02 15:54:02;;;;;;;58.13;7.68;;;;;;;;;;5054477;28;20259;-58
2023/06/02 15:56:27;;;;;;;45.13;6.45;;;;;;;;;;5054948;28;20067;-57
2023/06/02 15:58:53;;;;;;;78.35;9.35;;;;;;;;;;5051812;28;20025;-55
2023/06/02 16:01:18;;;;;;;47.60;6.53;;;;;;;;;;5053080;28;20036;-57
2023/06/02 16:03:43;;;;;;;86.50;10.27;;;;;;;;;;5050105;28;20343;-57
2023/06/02 16:06:09;;;;;;;53.90;7.85;;;;;;;;;;5053820;28;20289;-57
2023/06/02 16:08:36;;;;;;;57.63;7.28;;;;;;;;;;5055812;28;20371;-58
2023/06/02 16:11:01;;;;;;;51.55;6.03;;;;;;;;;;5062858;28;20067;-57
2023/06/02 16:13:26;;;;;;;62.60;7.38;;;;;;;;;;5071006;28;20115;-58
2023/06/02 16:15:54;;;;;;;96.03;10.97;;;;;;;;;;5065608;28;20045;-55
2023/06/02 16:18:19;;;;;;;61.35;7.07;;;;;;;;;;5053905;28;20019;-57
2023/06/02 16:20:44;;;;;;;116.43;12.50;;;;;;;;;;5049544;28;20037;-56
2023/06/02 16:23:09;;;;;;;44.63;5.93;;;;;;;;;;5054508;28;20085;-57
2023/06/02 16:25:35;;;;;;;54.08;6.68;;;;;;;;;;5053534;28;20037;-55
2023/06/02 16:28:00;;;;;;;43.72;5.82;;;;;;;;;;5053066;28;20055;-56
2023/06/02 16:30:25;;;;;;;45.90;6.30;;;;;;;;;;5053636;28;20099;-55
2023/06/02 16:32:51;;;;;;;71.33;7.10;;;;;;;;;;5045478;28;20031;-56
2023/06/02 16:35:16;;;;;;;49.47;6.25;;;;;;;;;;5049129;28;20187;-56
2023/06/02 16:37:41;;;;;;;78.20;8.30;;;;;;;;;;5051392;28;20009;-56
2023/06/02 16:40:07;;;;;;;42.22;5.97;;;;;;;;;;5052067;28;20341;-55
2023/06/02 16:42:32;;;;;;;41.92;5.82;;;;;;;;;;5052837;28;20036;-55
2023/06/02 16:44:57;;;;;;;49.83;6.33;;;;;;;;;;5054816;28;20409;-55
2023/06/02 16:47:22;;;;;;;42.93;6.13;;;;;;;;;;5052317;28;20282;-55
2023/06/02 16:49:48;;;;;;;88.33;10.30;;;;;;;;;;5050841;28;20033;-57
2023/06/02 16:52:13;;;;;;;62.38;7.55;;;;;;;;;;5052144;28;20283;-56
2023/06/02 16:54:39;;;;;;;50.67;6.90;;;;;;;;;;5069260;28;20023;-55
2023/06/02 16:57:04;;;;;;;48.28;6.47;;;;;;;;;;5052250;28;20143;-55
2023/06/02 16:59:30;;;;;;;49.45;6.50;;;;;;;;;;5052625;28;20041;-55
2023/06/02 17:01:55;;;;;;;114.53;11.93;;;;;;;;;;5051538;28;20041;-55
2023/06/02 17:04:20;;;;;;;64.00;7.45;;;;;;;;;;5049222;28;20048;-55
2023/06/02 17:06:45;;;;;;;81.10;9.47;;;;;;;;;;5051004;28;20115;-55
2023/06/02 17:09:11;;;;;;;53.83;6.93;;;;;;;;;;5053419;28;20321;-56
2023/06/02 17:11:37;;;;;;;72.50;8.07;;;;;;;;;;5052049;28;20127;-57
2023/06/02 17:14:03;;;;;;;62.55;7.13;;;;;;;;;;5051105;28;20832;-58
2023/06/02 17:16:29;;;;;;;63.97;7.25;;;;;;;;;;5052641;28;20037;-57
2023/06/02 17:18:54;;;;;;;108.88;11.57;;;;;;;;;;5050165;28;20098;-57
2023/06/02 17:21:19;;;;;;;53.45;6.72;;;;;;;;;;5049308;28;20509;-58
2023/06/02 17:23:45;;;;;;;91.20;10.15;;;;;;;;;;5050363;28;20029;-57
2023/06/02 17:26:10;;;;;;;73.78;8.23;;;;;;;;;;5052962;28;20036;-55
2023/06/02 17:28:36;;;;;;;73.10;8.10;;;;;;;;;;5053322;28;20028;-58
2023/06/02 17:31:04;;;;;;;74.85;8.60;;;;;;;;;;5051182;28;20554;-57
2023/06/02 17:33:29;;;;;;;80.30;8.30;;;;;;;;;;5049490;28;20025;-54
2023/06/02 17:35:55;;;;;;;100.68;9.98;;;;;;;;;;5050595;28;20041;-55
2023/06/02 17:38:20;;;;;;;78.47;8.87;;;;;;;;;;5054330;28;20017;-58
2023/06/02 17:40:45;;;;;;;117.53;12.20;;;;;;;;;;5051781;28;20855;-55
2023/06/02 17:43:10;;;;;;;86.80;9.80;;;;;;;;;;5052979;28;20051;-56
2023/06/02 17:45:36;;;;;;;76.53;8.57;;;;;;;;;;5052089;28;20111;-54
2023/06/02 17:48:01;;;;;;;70.95;10.45;;;;;;;;;;5051856;28;20052;-57
2023/06/02 17:50:27;;;;;;;72.50;9.18;;;;;;;;;;5053150;28;20028;-57
2023/06/02 17:52:52;;;;;;;104.55;11.80;;;;;;;;;;5051132;28;20105;-56
2023/06/02 17:55:17;;;;;;;61.00;7.50;;;;;;;;;;5053149;28;20136;-56
2023/06/02 17:57:43;;;;;;;68.72;8.00;;;;;;;;;;5053054;28;20015;-55
2023/06/02 18:00:10;;;;;;;56.30;6.70;;;;;;;;;;5052383;28;20020;-56
2023/06/02 18:02:35;;;;;;;54.30;6.53;;;;;;;;;;5050627;28;20127;-55
2023/06/02 18:05:02;;;;;;;88.50;9.65;;;;;;;;;;5049655;28;20086;-55
2023/06/02 18:07:27;;;;;;;47.22;6.00;;;;;;;;;;5052729;28;20024;-57
2023/06/02 18:09:53;;;;;;;87.63;9.70;;;;;;;;;;5051196;28;20046;-55
2023/06/02 18:12:18;;;;;;;59.15;6.70;;;;;;;;;;5050196;28;20119;-57
2023/06/02 18:14:43;;;;;;;70.93;7.78;;;;;;;;;;5052418;28;20127;-55
2023/06/02 18:17:08;;;;;;;60.23;6.90;;;;;;;;;;5049383;28;20029;-56
2023/06/02 18:19:34;;;;;;;57.40;6.65;;;;;;;;;;5053878;28;20343;-56
2023/06/02 18:21:59;;;;;;;117.25;12.20;;;;;;;;;;5049776;28;20033;-56
2023/06/02 18:24:25;;;;;;;67.43;6.95;;;;;;;;;;5052885;28;20490;-56
2023/06/02 18:26:50;;;;;;;147.35;13.23;;;;;;;;;;5049900;28;20459;-57
2023/06/02 18:29:15;;;;;;;47.10;5.70;;;;;;;;;;5053001;28;20296;-54
2023/06/02 18:31:40;;;;;;;84.78;8.57;;;;;;;;;;5050737;28;20021;-54
2023/06/02 18:34:06;;;;;;;50.67;6.20;;;;;;;;;;5048371;28;20036;-54
2023/06/02 18:36:31;;;;;;;67.40;7.40;;;;;;;;;;5052306;28;20044;-56
2023/06/02 18:38:56;;;;;;;97.53;10.40;;;;;;;;;;5050390;28;20687;-55
2023/06/02 18:41:22;;;;;;;66.07;7.40;;;;;;;;;;5051488;28;20441;-54
2023/06/02 18:43:47;;;;;;;68.53;7.38;;;;;;;;;;5049525;28;20111;-55
2023/06/02 18:46:12;;;;;;;65.05;7.35;;;;;;;;;;5052012;28;20036;-55
2023/06/02 18:48:37;;;;;;;65.57;7.27;;;;;;;;;;5051935;28;20020;-56
2023/06/02 18:51:03;;;;;;;131.73;12.23;;;;;;;;;;5048770;28;20278;-55
2023/06/02 18:53:28;;;;;;;63.03;7.33;;;;;;;;;;5050146;28;20027;-55
2023/06/02 18:55:53;;;;;;;114.80;11.50;;;;;;;;;;5048492;28;20263;-57
2023/06/02 18:58:18;;;;;;;83.28;8.63;;;;;;;;;;5051843;28;20904;-57
2023/06/02 19:00:44;;;;;;;89.63;8.63;;;;;;;;;;5050994;28;20035;-55
2023/06/02 19:03:09;;;;;;;83.13;8.40;;;;;;;;;;5048439;28;20029;-54
2023/06/02 19:05:35;;;;;;;89.33;8.47;;;;;;;;;;5050728;28;20173;-55
2023/06/02 19:08:00;;;;;;;128.77;12.57;;;;;;;;;;5050108;28;20036;-55
2023/06/02 19:10:25;;;;;;;86.53;8.45;;;;;;;;;;5050370;28;20119;-55
2023/06/02 19:12:51;;;;;;;101.70;9.85;;;;;;;;;;5048519;28;20036;-57
2023/06/02 19:15:16;;;;;;;80.60;8.47;;;;;;;;;;5050256;28;20526;-57
2023/06/02 19:17:41;;;;;;;65.85;7.28;;;;;;;;;;5049141;28;20611;-57
2023/06/02 19:20:07;;;;;;;79.97;8.13;;;;;;;;;;5053764;28;20058;-56
2023/06/02 19:22:34;;;;;;;91.53;8.68;;;;;;;;;;5072805;28;20036;-57
2023/06/02 19:24:59;;;;;;;109.05;10.15;;;;;;;;;;5072476;28;20023;-58
2023/06/02 19:27:24;;;;;;;73.28;7.60;;;;;;;;;;5054808;28;20579;-57
2023/06/02 19:29:50;;;;;;;82.30;8.27;;;;;;;;;;5053065;28;20039;-57
2023/06/02 19:32:15;;;;;;;104.38;9.65;;;;;;;;;;5048464;28;20037;-57
2023/06/02 19:34:40;;;;;;;67.97;7.20;;;;;;;;;;5050287;28;20036;-55
2023/06/02 19:37:06;;;;;;;140.10;12.85;;;;;;;;;;5052538;28;20500;-57
2023/06/02 19:39:31;;;;;;;82.82;7.97;;;;;;;;;;5055066;28;20061;-57
2023/06/02 19:41:57;;;;;;;142.27;12.43;;;;;;;;;;5052241;28;20078;-55
2023/06/02 19:44:22;;;;;;;77.50;7.83;;;;;;;;;;5053670;28;20020;-55
2023/06/02 19:46:47;;;;;;;78.82;7.45;;;;;;;;;;5066994;28;20290;-56
2023/06/02 19:49:12;;;;;;;67.67;7.10;;;;;;;;;;5073859;28;20020;-59
2023/06/02 19:51:39;;;;;;;66.97;7.22;;;;;;;;;;5060540;28;20286;-55
2023/06/02 19:54:05;;;;;;;88.35;9.52;;;;;;;;;;5046098;28;20025;-55
2023/06/02 19:56:30;;;;;;;56.35;6.38;;;;;;;;;;5052547;28;20036;-54
2023/06/02 19:58:55;;;;;;;84.13;8.43;;;;;;;;;;5054143;28;20040;-57
2023/06/02 20:01:21;;;;;;;56.70;6.43;;;;;;;;;;5054134;28;20082;-55
2023/06/02 20:03:46;;;;;;;81.87;8.30;;;;;;;;;;5047494;28;20289;-56
2023/06/02 20:06:11;;;;;;;59.33;6.72;;;;;;;;;;5061513;28;20964;-57
2023/06/02 20:08:38;;;;;;;44.63;5.53;;;;;;;;;;5075353;28;20024;-57
2023/06/02 20:11:04;;;;;;;95.10;10.20;;;;;;;;;;5065365;28;20190;-55
2023/06/02 20:13:29;;;;;;;47.45;5.75;;;;;;;;;;5054386;28;20024;-55
2023/06/02 20:15:57;;;;;;;85.30;8.40;;;;;;;;;;5051627;28;20109;-55
2023/06/02 20:18:22;;;;;;;59.17;6.78;;;;;;;;;;5054919;28;20020;-57
2023/06/02 20:20:48;;;;;;;83.90;8.33;;;;;;;;;;5059958;28;20051;-54
2023/06/02 20:23:13;;;;;;;74.25;8.23;;;;;;;;;;5071414;28;20263;-55
2023/06/02 20:25:38;;;;;;;59.72;6.40;;;;;;;;;;5069290;28;20044;-55
2023/06/02 20:28:03;;;;;;;102.07;9.93;;;;;;;;;;5053981;28;20568;-54
2023/06/02 20:30:29;;;;;;;76.70;7.78;;;;;;;;;;5052559;28;20890;-55
2023/06/02 20:32:54;;;;;;;101.45;9.45;;;;;;;;;;5050788;28;20028;-59
2023/06/02 20:35:19;;;;;;;89.78;8.73;;;;;;;;;;5052125;28;20028;-59
2023/06/02 20:37:45;;;;;;;74.50;7.57;;;;;;;;;;5053305;28;20438;-57
2023/06/02 20:40:10;;;;;;;116.15;10.45;;;;;;;;;;5049421;28;20069;-58
2023/06/02 20:42:35;;;;;;;93.20;9.02;;;;;;;;;;5048106;28;20033;-54
2023/06/02 20:45:01;;;;;;;120.10;11.40;;;;;;;;;;5052943;28;20085;-57
2023/06/02 20:47:28;;;;;;;82.40;8.23;;;;;;;;;;5040993;28;20057;-58
2023/06/02 20:49:53;;;;;;;79.18;8.45;;;;;;;;;;5052554;28;20118;-55
2023/06/02 20:52:18;;;;;;;71.93;7.33;;;;;;;;;;5050818;28;20127;-54
2023/06/02 20:54:43;;;;;;;79.50;7.85;;;;;;;;;;5053468;28;20247;-55
2023/06/02 20:57:09;;;;;;;128.73;11.83;;;;;;;;;;5067574;28;20047;-56
2023/06/02 20:59:34;;;;;;;93.18;8.60;;;;;;;;;;5074542;28;20742;-57
2023/06/02 21:01:59;;;;;;;140.20;12.00;;;;;;;;;;5052122;28;20033;-55
2023/06/02 21:04:24;;;;;;;76.88;7.75;;;;;;;;;;5049995;28;20352;-57
2023/06/02 21:06:50;;;;;;;69.88;7.22;;;;;;;;;;5053064;28;20511;-57
2023/06/02 21:09:15;;;;;;;86.03;7.95;;;;;;;;;;5052432;28;20028;-55
2023/06/02 21:11:40;;;;;;;75.97;7.47;;;;;;;;;;5051750;28;20100;-55
2023/06/02 21:14:05;;;;;;;131.52;12.18;;;;;;;;;;5051178;28;20012;-58
2023/06/02 21:16:32;;;;;;;73.05;7.15;;;;;;;;;;5052590;28;20024;-58
2023/06/02 21:18:57;;;;;;;78.60;7.32;;;;;;;;;;5052761;28;20025;-59
2023/06/02 21:21:22;;;;;;;97.60;9.00;;;;;;;;;;5052361;28;20085;-55
2023/06/02 21:23:48;;;;;;;80.80;8.05;;;;;;;;;;5052994;28;20098;-58
2023/06/02 21:26:13;;;;;;;139.43;12.25;;;;;;;;;;5049915;28;20071;-57
2023/06/02 21:28:38;;;;;;;93.82;8.35;;;;;;;;;;5052624;28;20035;-55
2023/06/02 21:31:03;;;;;;;121.70;11.20;;;;;;;;;;5049918;28;20047;-56
2023/06/02 21:33:29;;;;;;;77.50;7.60;;;;;;;;;;5049443;28;20282;-55
2023/06/02 21:35:54;;;;;;;75.07;7.25;;;;;;;;;;5050766;28;20275;-55
2023/06/02 21:38:20;;;;;;;77.70;7.80;;;;;;;;;;5051925;28;20013;-57
2023/06/02 21:40:45;;;;;;;106.37;9.17;;;;;;;;;;5050778;28;20119;-55
2023/06/02 21:43:10;;;;;;;103.87;10.00;;;;;;;;;;5050535;28;20361;-56
